sensor_id;sensor_type;location;lat;lon;timestamp;P1;durP1;ratioP1;P2;durP2;ratioP2
60472;SDS011;46318;52.716;6.444;2023-06-22T00:00:55;29.73;;;26.77;;
60472;SDS011;46318;52.716;6.444;2023-06-22T00:03:22;28.00;;;25.10;;
60472;SDS011;46318;52.716;6.444;2023-06-22T00:05:49;29.70;;;26.02;;
60472;SDS011;46318;52.716;6.444;2023-06-22T00:08:16;31.20;;;28.05;;
60472;SDS011;46318;52.716;6.444;2023-06-22T00:10:44;31.58;;;28.27;;
60472;SDS011;46318;52.716;6.444;2023-06-22T00:13:10;31.10;;;27.90;;
60472;SDS011;46318;52.716;6.444;2023-06-22T00:15:38;31.50;;;28.10;;
60472;SDS011;46318;52.716;6.444;2023-06-22T00:18:10;31.55;;;28.42;;
60472;SDS011;46318;52.716;6.444;2023-06-22T00:20:36;29.55;;;26.60;;
60472;SDS011;46318;52.716;6.444;2023-06-22T00:23:03;32.75;;;29.65;;
60472;SDS011;46318;52.716;6.444;2023-06-22T00:25:34;31.02;;;27.90;;
60472;SDS011;46318;52.716;6.444;2023-06-22T00:28:02;30.80;;;27.58;;
60472;SDS011;46318;52.716;6.444;2023-06-22T00:30:29;31.98;;;28.67;;
60472;SDS011;46318;52.716;6.444;2023-06-22T00:32:56;30.08;;;26.98;;
60472;SDS011;46318;52.716;6.444;2023-06-22T00:35:23;29.35;;;26.52;;
60472;SDS011;46318;52.716;6.444;2023-06-22T00:37:56;28.88;;;25.92;;
60472;SDS011;46318;52.716;6.444;2023-06-22T00:40:26;29.05;;;26.25;;
60472;SDS011;46318;52.716;6.444;2023-06-22T00:42:58;31.17;;;28.15;;
60472;SDS011;46318;52.716;6.444;2023-06-22T00:45:24;30.38;;;27.48;;
60472;SDS011;46318;52.716;6.444;2023-06-22T00:47:58;30.27;;;27.17;;
60472;SDS011;46318;52.716;6.444;2023-06-22T00:50:25;27.63;;;24.92;;
60472;SDS011;46318;52.716;6.444;2023-06-22T00:52:58;27.63;;;24.92;;
60472;SDS011;46318;52.716;6.444;2023-06-22T00:55:33;30.25;;;27.23;;
60472;SDS011;46318;52.716;6.444;2023-06-22T00:58:07;33.10;;;29.70;;
60472;SDS011;46318;52.716;6.444;2023-06-22T01:00:35;30.67;;;27.77;;
60472;SDS011;46318;52.716;6.444;2023-06-22T01:03:03;31.15;;;27.95;;
60472;SDS011;46318;52.716;6.444;2023-06-22T01:05:29;30.52;;;27.52;;
60472;SDS011;46318;52.716;6.444;2023-06-22T01:10:31;33.22;;;29.98;;
60472;SDS011;46318;52.716;6.444;2023-06-22T01:18:47;33.60;;;30.27;;
60472;SDS011;46318;52.716;6.444;2023-06-22T01:21:21;33.67;;;30.35;;
60472;SDS011;46318;52.716;6.444;2023-06-22T01:29:53;32.28;;;29.17;;
60472;SDS011;46318;52.716;6.444;2023-06-22T01:32:32;34.25;;;30.77;;
60472;SDS011;46318;52.716;6.444;2023-06-22T01:35:00;35.20;;;31.85;;
60472;SDS011;46318;52.716;6.444;2023-06-22T01:37:29;32.50;;;29.30;;
60472;SDS011;46318;52.716;6.444;2023-06-22T01:39:57;35.80;;;32.30;;
60472;SDS011;46318;52.716;6.444;2023-06-22T01:42:24;34.10;;;30.85;;
60472;SDS011;46318;52.716;6.444;2023-06-22T01:44:53;36.28;;;32.78;;
60472;SDS011;46318;52.716;6.444;2023-06-22T01:47:21;35.75;;;32.17;;
60472;SDS011;46318;52.716;6.444;2023-06-22T01:49:48;37.17;;;33.67;;
60472;SDS011;46318;52.716;6.444;2023-06-22T01:52:16;34.95;;;31.35;;
60472;SDS011;46318;52.716;6.444;2023-06-22T01:54:43;36.63;;;33.10;;
60472;SDS011;46318;52.716;6.444;2023-06-22T01:57:09;36.25;;;32.75;;
60472;SDS011;46318;52.716;6.444;2023-06-22T02:02:27;40.03;;;36.25;;
60472;SDS011;46318;52.716;6.444;2023-06-22T02:05:09;37.17;;;33.47;;
60472;SDS011;46318;52.716;6.444;2023-06-22T02:07:45;39.45;;;35.60;;
60472;SDS011;46318;52.716;6.444;2023-06-22T02:10:18;39.15;;;35.33;;
60472;SDS011;46318;52.716;6.444;2023-06-22T02:12:47;39.88;;;36.05;;
60472;SDS011;46318;52.716;6.444;2023-06-22T02:15:14;46.72;;;42.03;;
60472;SDS011;46318;52.716;6.444;2023-06-22T02:17:40;42.55;;;38.35;;
60472;SDS011;46318;52.716;6.444;2023-06-22T02:20:13;39.58;;;35.65;;
60472;SDS011;46318;52.716;6.444;2023-06-22T02:22:39;40.47;;;36.58;;
60472;SDS011;46318;52.716;6.444;2023-06-22T02:25:05;42.42;;;38.15;;
60472;SDS011;46318;52.716;6.444;2023-06-22T02:27:35;38.50;;;34.90;;
60472;SDS011;46318;52.716;6.444;2023-06-22T02:30:01;39.72;;;35.92;;
60472;SDS011;46318;52.716;6.444;2023-06-22T02:32:27;40.13;;;36.33;;
60472;SDS011;46318;52.716;6.444;2023-06-22T02:34:53;37.67;;;33.97;;
60472;SDS011;46318;52.716;6.444;2023-06-22T02:37:19;40.58;;;36.53;;
60472;SDS011;46318;52.716;6.444;2023-06-22T02:39:44;38.28;;;34.58;;
60472;SDS011;46318;52.716;6.444;2023-06-22T02:42:10;39.88;;;36.03;;
60472;SDS011;46318;52.716;6.444;2023-06-22T02:44:36;39.40;;;35.70;;
60472;SDS011;46318;52.716;6.444;2023-06-22T02:47:03;40.00;;;36.05;;
60472;SDS011;46318;52.716;6.444;2023-06-22T02:49:29;39.22;;;35.33;;
60472;SDS011;46318;52.716;6.444;2023-06-22T02:51:55;41.80;;;37.72;;
60472;SDS011;46318;52.716;6.444;2023-06-22T02:54:22;40.35;;;36.35;;
60472;SDS011;46318;52.716;6.444;2023-06-22T02:56:48;40.00;;;36.08;;
60472;SDS011;46318;52.716;6.444;2023-06-22T02:59:15;41.83;;;37.80;;
60472;SDS011;46318;52.716;6.444;2023-06-22T03:01:41;39.03;;;35.35;;
60472;SDS011;46318;52.716;6.444;2023-06-22T03:04:07;41.40;;;37.33;;
60472;SDS011;46318;52.716;6.444;2023-06-22T03:06:40;39.53;;;35.67;;
60472;SDS011;46318;52.716;6.444;2023-06-22T03:09:06;42.90;;;38.85;;
60472;SDS011;46318;52.716;6.444;2023-06-22T03:11:32;41.80;;;37.70;;
60472;SDS011;46318;52.716;6.444;2023-06-22T03:13:59;42.40;;;38.15;;
60472;SDS011;46318;52.716;6.444;2023-06-22T03:16:26;40.13;;;36.25;;
60472;SDS011;46318;52.716;6.444;2023-06-22T03:18:52;40.92;;;36.90;;
60472;SDS011;46318;52.716;6.444;2023-06-22T03:21:19;40.88;;;36.75;;
60472;SDS011;46318;52.716;6.444;2023-06-22T03:23:47;39.90;;;36.08;;
60472;SDS011;46318;52.716;6.444;2023-06-22T03:26:16;41.70;;;37.90;;
60472;SDS011;46318;52.716;6.444;2023-06-22T03:28:43;41.97;;;38.03;;
60472;SDS011;46318;52.716;6.444;2023-06-22T03:31:09;40.20;;;36.33;;
60472;SDS011;46318;52.716;6.444;2023-06-22T03:33:34;42.72;;;38.75;;
60472;SDS011;46318;52.716;6.444;2023-06-22T03:36:00;40.15;;;36.45;;
60472;SDS011;46318;52.716;6.444;2023-06-22T03:38:26;43.10;;;38.90;;
60472;SDS011;46318;52.716;6.444;2023-06-22T03:40:52;46.10;;;41.53;;
60472;SDS011;46318;52.716;6.444;2023-06-22T03:43:18;39.60;;;35.95;;
60472;SDS011;46318;52.716;6.444;2023-06-22T03:45:44;42.65;;;38.45;;
60472;SDS011;46318;52.716;6.444;2023-06-22T03:48:10;39.92;;;36.13;;
60472;SDS011;46318;52.716;6.444;2023-06-22T03:50:37;38.55;;;35.00;;
60472;SDS011;46318;52.716;6.444;2023-06-22T03:53:03;41.42;;;37.53;;
60472;SDS011;46318;52.716;6.444;2023-06-22T03:55:29;42.28;;;38.17;;
60472;SDS011;46318;52.716;6.444;2023-06-22T03:57:55;40.67;;;36.97;;
60472;SDS011;46318;52.716;6.444;2023-06-22T04:00:22;46.03;;;41.60;;
60472;SDS011;46318;52.716;6.444;2023-06-22T04:02:49;41.78;;;37.85;;
60472;SDS011;46318;52.716;6.444;2023-06-22T04:05:14;46.42;;;41.65;;
60472;SDS011;46318;52.716;6.444;2023-06-22T04:07:46;42.20;;;38.17;;
60472;SDS011;46318;52.716;6.444;2023-06-22T04:10:12;43.05;;;38.95;;
60472;SDS011;46318;52.716;6.444;2023-06-22T04:12:38;46.95;;;42.42;;
60472;SDS011;46318;52.716;6.444;2023-06-22T04:15:04;41.08;;;36.92;;
60472;SDS011;46318;52.716;6.444;2023-06-22T04:17:30;42.65;;;38.47;;
60472;SDS011;46318;52.716;6.444;2023-06-22T04:19:56;42.75;;;38.80;;
60472;SDS011;46318;52.716;6.444;2023-06-22T04:22:22;47.45;;;42.53;;
60472;SDS011;46318;52.716;6.444;2023-06-22T04:24:48;46.33;;;41.72;;
60472;SDS011;46318;52.716;6.444;2023-06-22T04:27:17;46.58;;;41.60;;
60472;SDS011;46318;52.716;6.444;2023-06-22T04:29:44;48.05;;;43.17;;
60472;SDS011;46318;52.716;6.444;2023-06-22T04:32:14;45.28;;;41.05;;
60472;SDS011;46318;52.716;6.444;2023-06-22T04:34:43;45.67;;;40.92;;
60472;SDS011;46318;52.716;6.444;2023-06-22T04:37:09;44.28;;;39.95;;
60472;SDS011;46318;52.716;6.444;2023-06-22T04:39:40;48.30;;;43.55;;
60472;SDS011;46318;52.716;6.444;2023-06-22T04:42:08;46.42;;;41.92;;
60472;SDS011;46318;52.716;6.444;2023-06-22T04:44:34;47.67;;;42.72;;
60472;SDS011;46318;52.716;6.444;2023-06-22T04:47:01;45.45;;;41.10;;
60472;SDS011;46318;52.716;6.444;2023-06-22T04:49:33;49.75;;;44.88;;
60472;SDS011;46318;52.716;6.444;2023-06-22T04:54:32;48.60;;;43.70;;
60472;SDS011;46318;52.716;6.444;2023-06-22T04:57:00;47.15;;;42.50;;
60472;SDS011;46318;52.716;6.444;2023-06-22T04:59:27;49.85;;;44.97;;
60472;SDS011;46318;52.716;6.444;2023-06-22T05:01:58;48.45;;;43.50;;
60472;SDS011;46318;52.716;6.444;2023-06-22T05:04:27;48.85;;;44.08;;
60472;SDS011;46318;52.716;6.444;2023-06-22T05:06:58;46.55;;;41.95;;
60472;SDS011;46318;52.716;6.444;2023-06-22T05:09:25;46.38;;;41.78;;
60472;SDS011;46318;52.716;6.444;2023-06-22T05:11:51;45.22;;;40.67;;
60472;SDS011;46318;52.716;6.444;2023-06-22T05:14:17;46.88;;;42.20;;
60472;SDS011;46318;52.716;6.444;2023-06-22T05:16:44;49.80;;;44.80;;
60472;SDS011;46318;52.716;6.444;2023-06-22T05:19:11;43.80;;;39.50;;
60472;SDS011;46318;52.716;6.444;2023-06-22T05:21:37;42.80;;;38.38;;
60472;SDS011;46318;52.716;6.444;2023-06-22T05:24:04;43.92;;;39.50;;
60472;SDS011;46318;52.716;6.444;2023-06-22T05:26:31;45.20;;;40.97;;
60472;SDS011;46318;52.716;6.444;2023-06-22T05:28:58;47.70;;;42.83;;
60472;SDS011;46318;52.716;6.444;2023-06-22T05:31:28;44.45;;;39.95;;
60472;SDS011;46318;52.716;6.444;2023-06-22T05:33:55;48.28;;;43.40;;
60472;SDS011;46318;52.716;6.444;2023-06-22T05:36:22;44.58;;;40.13;;
60472;SDS011;46318;52.716;6.444;2023-06-22T05:38:51;46.75;;;42.10;;
60472;SDS011;46318;52.716;6.444;2023-06-22T05:41:18;45.97;;;41.40;;
60472;SDS011;46318;52.716;6.444;2023-06-22T05:43:44;44.30;;;39.85;;
60472;SDS011;46318;52.716;6.444;2023-06-22T05:46:10;45.60;;;41.10;;
60472;SDS011;46318;52.716;6.444;2023-06-22T05:48:36;42.15;;;37.95;;
60472;SDS011;46318;52.716;6.444;2023-06-22T05:51:02;41.60;;;37.40;;
60472;SDS011;46318;52.716;6.444;2023-06-22T05:53:28;42.63;;;38.45;;
60472;SDS011;46318;52.716;6.444;2023-06-22T05:55:54;41.00;;;36.90;;
60472;SDS011;46318;52.716;6.444;2023-06-22T05:58:20;37.83;;;34.03;;
60472;SDS011;46318;52.716;6.444;2023-06-22T06:00:45;39.78;;;35.78;;
60472;SDS011;46318;52.716;6.444;2023-06-22T06:03:12;37.88;;;34.20;;
60472;SDS011;46318;52.716;6.444;2023-06-22T06:05:42;38.55;;;34.70;;
60472;SDS011;46318;52.716;6.444;2023-06-22T06:08:08;36.13;;;32.58;;
60472;SDS011;46318;52.716;6.444;2023-06-22T06:10:36;37.58;;;33.63;;
60472;SDS011;46318;52.716;6.444;2023-06-22T06:13:02;35.25;;;31.50;;
60472;SDS011;46318;52.716;6.444;2023-06-22T06:15:29;35.47;;;31.85;;
60472;SDS011;46318;52.716;6.444;2023-06-22T06:17:58;33.55;;;30.35;;
60472;SDS011;46318;52.716;6.444;2023-06-22T06:20:24;34.15;;;30.70;;
60472;SDS011;46318;52.716;6.444;2023-06-22T06:22:53;31.55;;;28.45;;
60472;SDS011;46318;52.716;6.444;2023-06-22T06:25:19;31.83;;;28.63;;
60472;SDS011;46318;52.716;6.444;2023-06-22T06:27:46;31.95;;;28.70;;
60472;SDS011;46318;52.716;6.444;2023-06-22T06:30:14;29.90;;;27.00;;
60472;SDS011;46318;52.716;6.444;2023-06-22T06:32:42;30.27;;;27.42;;
60472;SDS011;46318;52.716;6.444;2023-06-22T06:35:11;26.42;;;23.95;;
60472;SDS011;46318;52.716;6.444;2023-06-22T06:37:39;29.25;;;26.60;;
60472;SDS011;46318;52.716;6.444;2023-06-22T06:40:09;30.65;;;27.95;;
60472;SDS011;46318;52.716;6.444;2023-06-22T06:42:38;29.17;;;26.17;;
60472;SDS011;46318;52.716;6.444;2023-06-22T06:45:11;29.25;;;26.52;;
60472;SDS011;46318;52.716;6.444;2023-06-22T06:47:41;30.13;;;27.08;;
60472;SDS011;46318;52.716;6.444;2023-06-22T06:50:08;29.48;;;26.73;;
60472;SDS011;46318;52.716;6.444;2023-06-22T06:52:37;29.27;;;26.60;;
60472;SDS011;46318;52.716;6.444;2023-06-22T06:55:03;27.52;;;24.80;;
60472;SDS011;46318;52.716;6.444;2023-06-22T06:57:33;27.42;;;24.83;;
60472;SDS011;46318;52.716;6.444;2023-06-22T07:00:03;24.60;;;22.40;;
60472;SDS011;46318;52.716;6.444;2023-06-22T07:02:37;24.65;;;22.48;;
60472;SDS011;46318;52.716;6.444;2023-06-22T07:05:07;25.77;;;23.50;;
60472;SDS011;46318;52.716;6.444;2023-06-22T07:07:37;26.73;;;24.10;;
60472;SDS011;46318;52.716;6.444;2023-06-22T07:10:04;23.80;;;21.55;;
60472;SDS011;46318;52.716;6.444;2023-06-22T07:12:31;20.40;;;18.60;;
60472;SDS011;46318;52.716;6.444;2023-06-22T07:15:02;18.75;;;16.85;;
60472;SDS011;46318;52.716;6.444;2023-06-22T07:17:30;18.63;;;16.73;;
60472;SDS011;46318;52.716;6.444;2023-06-22T07:19:56;18.48;;;16.77;;
60472;SDS011;46318;52.716;6.444;2023-06-22T07:22:22;16.73;;;15.10;;
60472;SDS011;46318;52.716;6.444;2023-06-22T07:24:48;15.35;;;13.85;;
60472;SDS011;46318;52.716;6.444;2023-06-22T07:27:14;17.95;;;16.15;;
60472;SDS011;46318;52.716;6.444;2023-06-22T07:29:44;16.50;;;14.90;;
60472;SDS011;46318;52.716;6.444;2023-06-22T07:32:10;16.65;;;15.15;;
60472;SDS011;46318;52.716;6.444;2023-06-22T07:34:36;15.18;;;13.68;;
60472;SDS011;46318;52.716;6.444;2023-06-22T07:37:02;16.65;;;14.88;;
60472;SDS011;46318;52.716;6.444;2023-06-22T07:39:29;14.48;;;13.02;;
60472;SDS011;46318;52.716;6.444;2023-06-22T07:41:55;15.63;;;13.98;;
60472;SDS011;46318;52.716;6.444;2023-06-22T07:44:22;15.38;;;13.77;;
60472;SDS011;46318;52.716;6.444;2023-06-22T07:46:49;14.68;;;13.18;;
60472;SDS011;46318;52.716;6.444;2023-06-22T07:49:15;15.20;;;13.80;;
60472;SDS011;46318;52.716;6.444;2023-06-22T07:51:42;15.15;;;13.68;;
60472;SDS011;46318;52.716;6.444;2023-06-22T07:54:09;14.68;;;13.15;;
60472;SDS011;46318;52.716;6.444;2023-06-22T07:56:36;14.65;;;13.15;;
60472;SDS011;46318;52.716;6.444;2023-06-22T07:59:02;14.80;;;13.27;;
60472;SDS011;46318;52.716;6.444;2023-06-22T08:01:29;13.18;;;11.98;;
60472;SDS011;46318;52.716;6.444;2023-06-22T08:03:55;15.18;;;12.18;;
60472;SDS011;46318;52.716;6.444;2023-06-22T08:06:24;13.40;;;12.05;;
60472;SDS011;46318;52.716;6.444;2023-06-22T08:08:50;15.00;;;13.55;;
60472;SDS011;46318;52.716;6.444;2023-06-22T08:13:49;12.27;;;10.50;;
60472;SDS011;46318;52.716;6.444;2023-06-22T08:16:15;12.48;;;11.23;;
60472;SDS011;46318;52.716;6.444;2023-06-22T08:18:41;10.82;;;9.77;;
60472;SDS011;46318;52.716;6.444;2023-06-22T08:21:07;11.00;;;9.90;;
60472;SDS011;46318;52.716;6.444;2023-06-22T08:23:36;10.40;;;9.38;;
60472;SDS011;46318;52.716;6.444;2023-06-22T08:26:02;11.60;;;9.98;;
60472;SDS011;46318;52.716;6.444;2023-06-22T08:28:27;11.88;;;10.70;;
60472;SDS011;46318;52.716;6.444;2023-06-22T08:30:53;11.73;;;10.50;;
60472;SDS011;46318;52.716;6.444;2023-06-22T08:33:20;11.82;;;10.63;;
60472;SDS011;46318;52.716;6.444;2023-06-22T08:35:53;10.27;;;9.23;;
60472;SDS011;46318;52.716;6.444;2023-06-22T08:38:20;10.35;;;9.35;;
60472;SDS011;46318;52.716;6.444;2023-06-22T08:40:46;14.40;;;11.60;;
60472;SDS011;46318;52.716;6.444;2023-06-22T08:43:12;11.35;;;10.25;;
60472;SDS011;46318;52.716;6.444;2023-06-22T08:45:39;10.50;;;9.40;;
60472;SDS011;46318;52.716;6.444;2023-06-22T08:48:05;11.68;;;10.48;;
60472;SDS011;46318;52.716;6.444;2023-06-22T08:50:31;11.68;;;10.60;;
60472;SDS011;46318;52.716;6.444;2023-06-22T08:52:56;10.48;;;9.40;;
60472;SDS011;46318;52.716;6.444;2023-06-22T08:55:22;10.73;;;9.73;;
60472;SDS011;46318;52.716;6.444;2023-06-22T08:57:48;10.68;;;9.43;;
60472;SDS011;46318;52.716;6.444;2023-06-22T09:00:14;10.85;;;9.75;;
60472;SDS011;46318;52.716;6.444;2023-06-22T09:02:42;10.85;;;9.80;;
60472;SDS011;46318;52.716;6.444;2023-06-22T09:05:12;11.55;;;9.90;;
60472;SDS011;46318;52.716;6.444;2023-06-22T09:07:38;10.82;;;9.57;;
60472;SDS011;46318;52.716;6.444;2023-06-22T09:10:04;10.82;;;9.10;;
60472;SDS011;46318;52.716;6.444;2023-06-22T09:12:31;9.80;;;8.27;;
60472;SDS011;46318;52.716;6.444;2023-06-22T09:14:58;10.00;;;9.00;;
60472;SDS011;46318;52.716;6.444;2023-06-22T09:17:26;8.73;;;7.68;;
60472;SDS011;46318;52.716;6.444;2023-06-22T09:19:52;9.20;;;8.30;;
60472;SDS011;46318;52.716;6.444;2023-06-22T09:22:18;10.18;;;9.27;;
60472;SDS011;46318;52.716;6.444;2023-06-22T09:24:44;9.80;;;8.90;;
60472;SDS011;46318;52.716;6.444;2023-06-22T09:27:10;8.13;;;7.43;;
60472;SDS011;46318;52.716;6.444;2023-06-22T09:29:37;8.13;;;7.32;;
60472;SDS011;46318;52.716;6.444;2023-06-22T09:32:02;9.35;;;7.95;;
60472;SDS011;46318;52.716;6.444;2023-06-22T09:34:29;9.55;;;8.63;;
60472;SDS011;46318;52.716;6.444;2023-06-22T09:36:56;7.97;;;7.20;;
60472;SDS011;46318;52.716;6.444;2023-06-22T09:39:25;7.80;;;6.97;;
60472;SDS011;46318;52.716;6.444;2023-06-22T09:41:51;11.15;;;8.00;;
60472;SDS011;46318;52.716;6.444;2023-06-22T09:44:17;8.60;;;7.80;;
60472;SDS011;46318;52.716;6.444;2023-06-22T09:46:43;8.85;;;8.00;;
60472;SDS011;46318;52.716;6.444;2023-06-22T09:49:09;10.85;;;8.75;;
60472;SDS011;46318;52.716;6.444;2023-06-22T09:51:35;9.90;;;8.73;;
60472;SDS011;46318;52.716;6.444;2023-06-22T09:54:01;8.23;;;7.25;;
60472;SDS011;46318;52.716;6.444;2023-06-22T09:56:27;7.32;;;6.57;;
60472;SDS011;46318;52.716;6.444;2023-06-22T09:58:55;9.90;;;7.45;;
60472;SDS011;46318;52.716;6.444;2023-06-22T10:01:21;8.38;;;7.43;;
60472;SDS011;46318;52.716;6.444;2023-06-22T10:03:53;8.38;;;7.57;;
60472;SDS011;46318;52.716;6.444;2023-06-22T10:06:21;7.90;;;7.20;;
60472;SDS011;46318;52.716;6.444;2023-06-22T10:08:47;9.40;;;8.40;;
60472;SDS011;46318;52.716;6.444;2023-06-22T10:11:15;9.40;;;8.32;;
60472;SDS011;46318;52.716;6.444;2023-06-22T10:13:41;8.68;;;7.78;;
60472;SDS011;46318;52.716;6.444;2023-06-22T10:16:07;8.27;;;7.22;;
60472;SDS011;46318;52.716;6.444;2023-06-22T10:18:33;9.23;;;6.78;;
60472;SDS011;46318;52.716;6.444;2023-06-22T10:20:59;7.55;;;6.38;;
60472;SDS011;46318;52.716;6.444;2023-06-22T10:23:25;8.02;;;7.15;;
60472;SDS011;46318;52.716;6.444;2023-06-22T10:25:51;7.18;;;6.47;;
60472;SDS011;46318;52.716;6.444;2023-06-22T10:28:17;7.38;;;6.68;;
60472;SDS011;46318;52.716;6.444;2023-06-22T10:30:43;9.13;;;8.38;;
60472;SDS011;46318;52.716;6.444;2023-06-22T10:33:09;7.57;;;6.78;;
60472;SDS011;46318;52.716;6.444;2023-06-22T10:35:37;8.77;;;7.38;;
60472;SDS011;46318;52.716;6.444;2023-06-22T10:38:04;6.80;;;6.20;;
60472;SDS011;46318;52.716;6.444;2023-06-22T10:40:30;9.20;;;8.30;;
60472;SDS011;46318;52.716;6.444;2023-06-22T10:42:56;8.98;;;6.10;;
60472;SDS011;46318;52.716;6.444;2023-06-22T10:45:22;7.10;;;6.30;;
60472;SDS011;46318;52.716;6.444;2023-06-22T10:47:48;8.18;;;7.20;;
60472;SDS011;46318;52.716;6.444;2023-06-22T10:50:14;7.90;;;6.78;;
60472;SDS011;46318;52.716;6.444;2023-06-22T10:52:40;8.20;;;7.40;;
60472;SDS011;46318;52.716;6.444;2023-06-22T10:55:07;10.25;;;6.65;;
60472;SDS011;46318;52.716;6.444;2023-06-22T10:57:34;7.05;;;6.45;;
60472;SDS011;46318;52.716;6.444;2023-06-22T11:00:01;6.10;;;5.50;;
60472;SDS011;46318;52.716;6.444;2023-06-22T11:02:31;9.43;;;8.63;;
60472;SDS011;46318;52.716;6.444;2023-06-22T11:04:57;7.72;;;6.95;;
60472;SDS011;46318;52.716;6.444;2023-06-22T11:07:25;8.15;;;7.35;;
60472;SDS011;46318;52.716;6.444;2023-06-22T11:09:54;6.70;;;6.10;;
60472;SDS011;46318;52.716;6.444;2023-06-22T11:12:20;7.10;;;6.40;;
60472;SDS011;46318;52.716;6.444;2023-06-22T11:14:46;6.38;;;5.88;;
60472;SDS011;46318;52.716;6.444;2023-06-22T11:17:12;8.43;;;7.07;;
60472;SDS011;46318;52.716;6.444;2023-06-22T11:19:40;8.45;;;5.68;;
60472;SDS011;46318;52.716;6.444;2023-06-22T11:22:06;8.48;;;7.70;;
60472;SDS011;46318;52.716;6.444;2023-06-22T11:24:32;8.75;;;7.45;;
60472;SDS011;46318;52.716;6.444;2023-06-22T11:26:58;8.35;;;7.55;;
60472;SDS011;46318;52.716;6.444;2023-06-22T11:29:24;7.38;;;6.60;;
60472;SDS011;46318;52.716;6.444;2023-06-22T11:31:50;6.68;;;6.00;;
60472;SDS011;46318;52.716;6.444;2023-06-22T11:34:16;5.85;;;5.30;;
60472;SDS011;46318;52.716;6.444;2023-06-22T11:36:42;6.57;;;5.68;;
60472;SDS011;46318;52.716;6.444;2023-06-22T11:39:09;7.13;;;4.80;;
60472;SDS011;46318;52.716;6.444;2023-06-22T11:41:35;5.60;;;5.10;;
60472;SDS011;46318;52.716;6.444;2023-06-22T11:44:01;5.78;;;5.18;;
60472;SDS011;46318;52.716;6.444;2023-06-22T11:46:29;6.78;;;6.10;;
60472;SDS011;46318;52.716;6.444;2023-06-22T11:48:55;7.28;;;6.57;;
60472;SDS011;46318;52.716;6.444;2023-06-22T11:51:21;7.22;;;6.60;;
60472;SDS011;46318;52.716;6.444;2023-06-22T11:53:47;5.93;;;5.40;;
60472;SDS011;46318;52.716;6.444;2023-06-22T11:56:13;6.70;;;5.82;;
60472;SDS011;46318;52.716;6.444;2023-06-22T11:58:39;7.47;;;5.70;;
60472;SDS011;46318;52.716;6.444;2023-06-22T12:01:05;6.80;;;5.97;;
60472;SDS011;46318;52.716;6.444;2023-06-22T12:03:36;6.30;;;5.80;;
60472;SDS011;46318;52.716;6.444;2023-06-22T12:06:02;6.53;;;5.93;;
60472;SDS011;46318;52.716;6.444;2023-06-22T12:08:28;6.50;;;5.85;;
60472;SDS011;46318;52.716;6.444;2023-06-22T12:10:54;5.95;;;5.45;;
60472;SDS011;46318;52.716;6.444;2023-06-22T12:13:21;8.60;;;6.45;;
60472;SDS011;46318;52.716;6.444;2023-06-22T12:15:47;7.75;;;6.95;;
60472;SDS011;46318;52.716;6.444;2023-06-22T12:18:13;7.70;;;7.10;;
60472;SDS011;46318;52.716;6.444;2023-06-22T12:20:41;6.35;;;5.85;;
60472;SDS011;46318;52.716;6.444;2023-06-22T12:23:07;8.38;;;7.47;;
60472;SDS011;46318;52.716;6.444;2023-06-22T12:25:33;8.50;;;7.57;;
60472;SDS011;46318;52.716;6.444;2023-06-22T12:27:59;7.93;;;7.15;;
60472;SDS011;46318;52.716;6.444;2023-06-22T12:30:25;8.43;;;7.32;;
60472;SDS011;46318;52.716;6.444;2023-06-22T12:32:51;10.38;;;9.50;;
60472;SDS011;46318;52.716;6.444;2023-06-22T12:35:17;8.48;;;7.65;;
60472;SDS011;46318;52.716;6.444;2023-06-22T12:37:44;9.63;;;8.13;;
60472;SDS011;46318;52.716;6.444;2023-06-22T12:40:10;8.52;;;7.72;;
60472;SDS011;46318;52.716;6.444;2023-06-22T12:42:36;10.50;;;8.20;;
60472;SDS011;46318;52.716;6.444;2023-06-22T12:45:02;9.45;;;8.45;;
60472;SDS011;46318;52.716;6.444;2023-06-22T12:47:29;10.68;;;8.90;;
60472;SDS011;46318;52.716;6.444;2023-06-22T12:49:56;9.68;;;8.55;;
60472;SDS011;46318;52.716;6.444;2023-06-22T12:52:22;9.48;;;8.48;;
60472;SDS011;46318;52.716;6.444;2023-06-22T12:54:48;8.15;;;7.35;;
60472;SDS011;46318;52.716;6.444;2023-06-22T12:57:14;10.27;;;9.30;;
60472;SDS011;46318;52.716;6.444;2023-06-22T12:59:40;8.68;;;7.88;;
60472;SDS011;46318;52.716;6.444;2023-06-22T13:02:05;10.23;;;9.13;;
60472;SDS011;46318;52.716;6.444;2023-06-22T13:04:31;10.73;;;9.60;;
60472;SDS011;46318;52.716;6.444;2023-06-22T13:06:57;9.55;;;8.68;;
60472;SDS011;46318;52.716;6.444;2023-06-22T13:09:23;10.05;;;9.23;;
60472;SDS011;46318;52.716;6.444;2023-06-22T13:11:49;10.25;;;8.02;;
60472;SDS011;46318;52.716;6.444;2023-06-22T13:14:17;10.05;;;9.15;;
60472;SDS011;46318;52.716;6.444;2023-06-22T13:16:43;9.00;;;8.20;;
60472;SDS011;46318;52.716;6.444;2023-06-22T13:19:09;8.82;;;7.85;;
60472;SDS011;46318;52.716;6.444;2023-06-22T13:21:36;8.05;;;7.35;;
60472;SDS011;46318;52.716;6.444;2023-06-22T13:24:02;10.45;;;8.75;;
60472;SDS011;46318;52.716;6.444;2023-06-22T13:26:28;8.80;;;7.10;;
60472;SDS011;46318;52.716;6.444;2023-06-22T13:28:54;7.82;;;7.05;;
60472;SDS011;46318;52.716;6.444;2023-06-22T13:31:20;8.63;;;6.53;;
60472;SDS011;46318;52.716;6.444;2023-06-22T13:33:46;9.88;;;8.07;;
60472;SDS011;46318;52.716;6.444;2023-06-22T13:36:14;8.13;;;7.30;;
60472;SDS011;46318;52.716;6.444;2023-06-22T13:38:40;8.32;;;7.20;;
60472;SDS011;46318;52.716;6.444;2023-06-22T13:41:06;8.15;;;7.43;;
60472;SDS011;46318;52.716;6.444;2023-06-22T13:43:31;9.10;;;8.30;;
60472;SDS011;46318;52.716;6.444;2023-06-22T13:45:57;7.97;;;7.18;;
60472;SDS011;46318;52.716;6.444;2023-06-22T13:48:23;8.60;;;7.88;;
60472;SDS011;46318;52.716;6.444;2023-06-22T13:50:51;9.40;;;8.15;;
60472;SDS011;46318;52.716;6.444;2023-06-22T13:53:17;9.52;;;8.18;;
60472;SDS011;46318;52.716;6.444;2023-06-22T13:55:44;9.02;;;8.13;;
60472;SDS011;46318;52.716;6.444;2023-06-22T13:58:10;8.45;;;7.00;;
60472;SDS011;46318;52.716;6.444;2023-06-22T14:00:35;7.32;;;6.63;;
60472;SDS011;46318;52.716;6.444;2023-06-22T14:03:02;12.73;;;7.88;;
60472;SDS011;46318;52.716;6.444;2023-06-22T14:05:28;9.00;;;8.10;;
60472;SDS011;46318;52.716;6.444;2023-06-22T14:07:54;9.57;;;8.27;;
60472;SDS011;46318;52.716;6.444;2023-06-22T14:10:20;8.10;;;7.30;;
60472;SDS011;46318;52.716;6.444;2023-06-22T14:12:45;8.52;;;6.65;;
60472;SDS011;46318;52.716;6.444;2023-06-22T14:15:11;8.07;;;7.28;;
60472;SDS011;46318;52.716;6.444;2023-06-22T14:17:37;8.07;;;7.32;;
60472;SDS011;46318;52.716;6.444;2023-06-22T14:20:04;8.30;;;7.50;;
60472;SDS011;46318;52.716;6.444;2023-06-22T14:22:33;8.00;;;7.22;;
60472;SDS011;46318;52.716;6.444;2023-06-22T14:25:00;8.68;;;7.85;;
60472;SDS011;46318;52.716;6.444;2023-06-22T14:27:26;8.95;;;8.25;;
60472;SDS011;46318;52.716;6.444;2023-06-22T14:29:52;9.23;;;8.27;;
60472;SDS011;46318;52.716;6.444;2023-06-22T14:32:18;10.95;;;9.75;;
60472;SDS011;46318;52.716;6.444;2023-06-22T14:34:44;10.60;;;9.50;;
60472;SDS011;46318;52.716;6.444;2023-06-22T14:37:10;11.68;;;10.57;;
60472;SDS011;46318;52.716;6.444;2023-06-22T14:39:38;10.80;;;9.70;;
60472;SDS011;46318;52.716;6.444;2023-06-22T14:42:08;11.98;;;10.70;;
60472;SDS011;46318;52.716;6.444;2023-06-22T14:44:34;12.20;;;11.07;;
60472;SDS011;46318;52.716;6.444;2023-06-22T14:47:00;12.70;;;11.60;;
60472;SDS011;46318;52.716;6.444;2023-06-22T14:49:26;12.40;;;11.23;;
60472;SDS011;46318;52.716;6.444;2023-06-22T14:51:52;12.95;;;11.85;;